Time;durP1;ratioP1;P1;durP2;ratioP2;P2;SDS_P1;SDS_P2;PMS_P1;PMS_P2;Temp;Humidity;BMP_temperature;BMP_pressure;BME280_temperature;BME280_humidity;BME280_pressure;Samples;Min_cycle;Max_cycle;Signal;HPM_P1;HPM_P2
2022/02/16 00:02:08;;;;;;;12.00;7.75;;;9.30;93.00;;;;;;4962546;28;20435;-77
2022/02/16 00:04:34;;;;;;;11.40;7.88;;;9.30;93.00;;;;;;4961498;28;20039;-79
2022/02/16 00:07:00;;;;;;;12.57;8.27;;;9.20;93.10;;;;;;4960929;28;20038;-78
2022/02/16 00:09:25;;;;;;;12.52;8.10;;;9.30;93.10;;;;;;4960842;28;20530;-78
2022/02/16 00:11:51;;;;;;;9.93;7.25;;;9.30;93.10;;;;;;4963094;28;20041;-77
2022/02/16 00:14:17;;;;;;;10.80;7.15;;;9.30;93.00;;;;;;4961594;28;20148;-78
2022/02/16 00:16:43;;;;;;;12.05;7.22;;;9.30;93.10;;;;;;4959807;28;20287;-76
2022/02/16 00:19:08;;;;;;;9.45;7.25;;;9.30;93.10;;;;;;4960649;28;20030;-77
2022/02/16 00:21:34;;;;;;;10.32;7.35;;;9.30;93.10;;;;;;4945537;28;20050;-78
2022/02/16 00:24:00;;;;;;;10.70;7.57;;;9.30;93.20;;;;;;4964562;28;20731;-77
2022/02/16 00:26:26;;;;;;;10.52;7.05;;;9.30;93.20;;;;;;4967227;28;22187;-77
2022/02/16 00:28:51;;;;;;;10.80;6.97;;;9.30;93.30;;;;;;4963197;28;20049;-77
2022/02/16 00:31:18;;;;;;;11.52;6.95;;;9.30;93.30;;;;;;4959331;28;20065;-77
2022/02/16 00:33:43;;;;;;;9.98;7.18;;;9.30;93.20;;;;;;4942692;28;20039;-77
2022/02/16 00:36:09;;;;;;;9.52;6.35;;;9.30;93.20;;;;;;4961279;28;20715;-77
2022/02/16 00:38:35;;;;;;;10.50;7.22;;;9.40;93.20;;;;;;4961160;28;20045;-78
2022/02/16 00:41:01;;;;;;;10.48;7.22;;;9.30;93.10;;;;;;4959604;28;20510;-78
2022/02/16 00:43:27;;;;;;;9.80;6.70;;;9.40;93.00;;;;;;4944918;28;20038;-79
2022/02/16 00:46:15;;;;;;;;;;;;;;;;;;;;;
2022/02/16 00:48:48;;;;;;;9.50;6.72;;;9.30;93.00;;;;;;4892339;28;20103;-80
2022/02/16 00:51:15;;;;;;;9.30;6.72;;;9.40;93.00;;;;;;4944019;28;20398;-78
2022/02/16 00:53:41;;;;;;;9.52;6.03;;;9.30;93.00;;;;;;4943310;28;20419;-78
2022/02/16 00:56:06;;;;;;;8.70;6.15;;;9.30;93.00;;;;;;4965770;28;20038;-77
2022/02/16 00:58:32;;;;;;;8.88;5.80;;;9.30;93.00;;;;;;4955470;28;20030;-80
2022/02/16 01:00:58;;;;;;;9.55;6.07;;;9.30;93.00;;;;;;4941070;28;20043;-78
2022/02/16 01:03:25;;;;;;;8.23;5.47;;;9.20;93.00;;;;;;4943285;28;20515;-78
2022/02/16 01:05:51;;;;;;;7.95;5.07;;;9.30;93.00;;;;;;4938596;28;20035;-78
2022/02/16 01:08:18;;;;;;;8.13;5.63;;;9.20;93.00;;;;;;4940442;28;20042;-78
2022/02/16 01:10:45;;;;;;;8.27;5.43;;;9.20;93.10;;;;;;4943059;28;20027;-78
2022/02/16 01:13:11;;;;;;;8.70;5.75;;;9.20;93.20;;;;;;4950635;28;20031;-79
2022/02/16 01:15:38;;;;;;;9.10;5.10;;;9.20;93.20;;;;;;4950389;28;20105;-78
2022/02/16 01:18:04;;;;;;;8.38;5.93;;;9.20;93.20;;;;;;4928613;28;20130;-78
2022/02/16 01:20:30;;;;;;;8.45;5.25;;;9.30;93.30;;;;;;4952070;28;20042;-78
2022/02/16 01:22:56;;;;;;;8.93;5.80;;;9.30;93.30;;;;;;4958568;28;20034;-78
2022/02/16 01:25:21;;;;;;;9.10;5.78;;;9.30;93.30;;;;;;4954679;28;20093;-78
2022/02/16 01:27:48;;;;;;;7.95;6.07;;;9.30;93.20;;;;;;4943987;28;20042;-78
2022/02/16 01:30:14;;;;;;;8.98;6.43;;;9.30;93.30;;;;;;4947349;28;20031;-79
2022/02/16 01:32:39;;;;;;;8.68;6.35;;;9.30;93.20;;;;;;4949021;28;20046;-78
2022/02/16 01:35:06;;;;;;;10.45;6.28;;;9.30;93.20;;;;;;4953121;28;20044;-77
2022/02/16 01:37:32;;;;;;;9.68;6.45;;;9.30;93.20;;;;;;4954763;28;20053;-77
2022/02/16 01:39:58;;;;;;;10.82;6.55;;;9.30;93.20;;;;;;4941464;28;20035;-78
2022/02/16 01:42:24;;;;;;;9.30;6.20;;;9.30;93.20;;;;;;4956298;28;20038;-77
2022/02/16 01:44:50;;;;;;;7.90;6.03;;;9.30;93.20;;;;;;4949952;28;20039;-77
2022/02/16 01:47:17;;;;;;;8.48;6.28;;;9.40;93.20;;;;;;4940729;28;20912;-76
2022/02/16 01:49:44;;;;;;;9.93;6.00;;;9.40;93.20;;;;;;4952479;28;20199;-76
2022/02/16 01:52:11;;;;;;;7.82;5.82;;;9.40;93.20;;;;;;4957383;28;20117;-76
2022/02/16 01:54:37;;;;;;;8.82;5.55;;;9.40;93.20;;;;;;4948189;28;20090;-76
2022/02/16 01:57:05;;;;;;;9.43;5.97;;;9.40;93.30;;;;;;4953245;28;20440;-77
2022/02/16 01:59:33;;;;;;;8.23;5.45;;;9.40;93.30;;;;;;4943443;28;20035;-77
2022/02/16 02:01:59;;;;;;;9.50;5.47;;;9.40;93.30;;;;;;4933769;28;20148;-76
2022/02/16 02:04:26;;;;;;;8.43;5.95;;;9.40;93.30;;;;;;4943835;28;20119;-77
2022/02/16 02:06:51;;;;;;;10.32;5.80;;;9.40;93.30;;;;;;4942899;28;20043;-76
2022/02/16 02:09:17;;;;;;;7.80;5.70;;;9.40;93.30;;;;;;4944864;28;20387;-77
2022/02/16 02:11:43;;;;;;;9.73;6.00;;;9.40;93.30;;;;;;4943052;28;20043;-77
2022/02/16 02:14:10;;;;;;;7.88;5.10;;;9.40;93.30;;;;;;4941474;28;20046;-78
2022/02/16 02:16:38;;;;;;;7.60;5.15;;;9.40;93.30;;;;;;4942109;28;20629;-77
2022/02/16 02:19:05;;;;;;;7.75;5.05;;;9.40;93.30;;;;;;4941364;28;20089;-77
2022/02/16 02:21:30;;;;;;;8.20;5.10;;;9.40;93.30;;;;;;4939806;28;20514;-77
2022/02/16 02:23:57;;;;;;;7.45;4.90;;;9.50;93.30;;;;;;4943508;28;20043;-78
2022/02/16 02:26:23;;;;;;;7.07;4.72;;;9.40;93.20;;;;;;4942209;28;20074;-77
2022/02/16 02:28:51;;;;;;;7.43;4.50;;;9.40;93.30;;;;;;4946266;28;20146;-77
2022/02/16 02:31:33;;;;;;;6.15;4.20;;;9.40;93.30;;;;;;4940994;28;20042;-77
2022/02/16 02:33:59;;;;;;;7.35;3.80;;;9.50;93.30;;;;;;4944081;28;20047;-77
2022/02/16 02:36:26;;;;;;;5.68;3.80;;;9.50;93.20;;;;;;4946303;28;20046;-77
2022/02/16 02:38:52;;;;;;;7.05;4.40;;;9.50;93.20;;;;;;4940562;28;20046;-77
2022/02/16 02:41:18;;;;;;;6.50;4.20;;;9.50;93.20;;;;;;4943665;28;20162;-77
2022/02/16 02:43:46;;;;;;;6.78;3.85;;;9.50;93.30;;;;;;4940168;28;20096;-77
2022/02/16 02:46:12;;;;;;;6.13;4.07;;;9.50;93.30;;;;;;4942586;28;20515;-77
2022/02/16 02:48:38;;;;;;;7.05;3.90;;;9.50;93.40;;;;;;4946453;28;20054;-76
2022/02/16 02:51:04;;;;;;;5.72;3.85;;;9.50;93.30;;;;;;4946560;28;20134;-76
2022/02/16 02:53:30;;;;;;;6.80;4.18;;;9.50;93.40;;;;;;4942929;28;20158;-77
2022/02/16 02:55:56;;;;;;;6.32;4.25;;;9.50;93.40;;;;;;4941448;28;20058;-76
2022/02/16 02:58:22;;;;;;;7.03;4.10;;;9.50;93.40;;;;;;4953600;28;20118;-78
2022/02/16 03:00:48;;;;;;;7.68;3.83;;;9.50;93.40;;;;;;4942009;28;20043;-76
2022/02/16 03:03:14;;;;;;;7.13;4.00;;;9.50;93.40;;;;;;4947999;28;20034;-78
2022/02/16 03:05:40;;;;;;;6.80;3.70;;;9.50;93.40;;;;;;4942698;28;20096;-76
2022/02/16 03:08:06;;;;;;;6.20;4.20;;;9.50;93.40;;;;;;4946382;28;20150;-77
2022/02/16 03:10:32;;;;;;;6.43;3.90;;;9.50;93.40;;;;;;4949644;28;20118;-76
2022/02/16 03:12:58;;;;;;;7.10;4.35;;;9.50;93.40;;;;;;4953257;28;20043;-76
2022/02/16 03:15:23;;;;;;;6.65;4.10;;;9.50;93.40;;;;;;4938975;28;20450;-76
2022/02/16 03:17:49;;;;;;;6.88;3.80;;;9.50;93.40;;;;;;4942655;28;20043;-77
2022/02/16 03:20:15;;;;;;;5.80;3.83;;;9.60;93.50;;;;;;4944797;28;20039;-77
2022/02/16 03:22:41;;;;;;;7.85;3.90;;;9.50;93.40;;;;;;4941202;28;20556;-77
2022/02/16 03:25:09;;;;;;;6.90;4.15;;;9.60;93.40;;;;;;4943218;28;20578;-77
2022/02/16 03:27:36;;;;;;;6.28;3.88;;;9.60;93.40;;;;;;4943574;28;20453;-77
2022/02/16 03:30:05;;;;;;;6.65;3.65;;;9.60;93.40;;;;;;4948907;28;20027;-77
2022/02/16 03:32:30;;;;;;;6.80;3.85;;;9.60;93.40;;;;;;4952593;28;20478;-76
2022/02/16 03:34:56;;;;;;;8.70;4.72;;;9.60;93.40;;;;;;4962872;28;20045;-77
2022/02/16 03:37:22;;;;;;;7.93;4.30;;;9.60;93.50;;;;;;4958026;28;20077;-77
2022/02/16 03:39:47;;;;;;;6.65;4.03;;;9.60;93.50;;;;;;4957426;28;20467;-76
2022/02/16 03:42:14;;;;;;;6.85;4.50;;;9.60;93.50;;;;;;4958511;28;20163;-77
2022/02/16 03:44:41;;;;;;;7.25;4.78;;;9.60;93.50;;;;;;4952761;28;20050;-77
2022/02/16 03:47:06;;;;;;;6.47;4.28;;;9.60;93.50;;;;;;4965096;28;20041;-76
2022/02/16 03:49:32;;;;;;;6.90;4.43;;;9.60;93.50;;;;;;4963868;28;20034;-75
2022/02/16 03:51:58;;;;;;;6.53;4.35;;;9.60;93.50;;;;;;4964809;28;20236;-77
2022/02/16 03:54:24;;;;;;;6.88;4.40;;;9.60;93.40;;;;;;4962152;28;20577;-77
2022/02/16 03:56:51;;;;;;;6.75;4.85;;;9.60;93.40;;;;;;4962806;28;20237;-77
2022/02/16 03:59:17;;;;;;;6.90;4.40;;;9.70;93.40;;;;;;4961119;28;20470;-77
2022/02/16 04:01:42;;;;;;;6.63;4.32;;;9.70;93.40;;;;;;4959252;28;20047;-77
2022/02/16 04:04:08;;;;;;;6.70;4.65;;;9.70;93.50;;;;;;4959682;28;20043;-77
2022/02/16 04:06:34;;;;;;;8.43;4.50;;;9.70;93.50;;;;;;4960617;28;20112;-77
2022/02/16 04:08:59;;;;;;;6.72;4.40;;;9.70;93.50;;;;;;4957362;28;20043;-77
2022/02/16 04:11:27;;;;;;;8.05;4.95;;;9.70;93.50;;;;;;4957695;28;20097;-78
2022/02/16 04:13:54;;;;;;;6.47;4.57;;;9.70;93.40;;;;;;4962870;28;20031;-76
2022/02/16 04:16:21;;;;;;;7.03;4.28;;;9.70;93.40;;;;;;4943305;28;20066;-77
2022/02/16 04:18:46;;;;;;;6.53;4.70;;;9.80;93.50;;;;;;4958022;28;20053;-77
2022/02/16 04:21:12;;;;;;;6.97;4.20;;;9.70;93.40;;;;;;4961989;28;20039;-77
2022/02/16 04:23:38;;;;;;;7.90;4.57;;;9.80;93.50;;;;;;4960215;28;20039;-77
2022/02/16 04:26:03;;;;;;;6.35;4.00;;;9.80;93.50;;;;;;4961475;28;20034;-77
2022/02/16 04:28:29;;;;;;;6.43;3.97;;;9.80;93.60;;;;;;4959249;28;20041;-76
2022/02/16 04:30:55;;;;;;;6.32;3.80;;;9.80;93.60;;;;;;4960191;28;20537;-76
2022/02/16 04:33:21;;;;;;;5.30;3.63;;;9.80;93.60;;;;;;4964825;28;20221;-77
2022/02/16 04:35:46;;;;;;;5.50;3.58;;;9.80;93.60;;;;;;4966622;28;20456;-77
2022/02/16 04:38:12;;;;;;;6.47;3.75;;;9.90;93.60;;;;;;4960191;28;20030;-77
2022/02/16 04:40:41;;;;;;;5.75;3.70;;;9.80;93.60;;;;;;4959387;28;20031;-77
2022/02/16 04:43:07;;;;;;;4.78;3.10;;;9.90;93.60;;;;;;4960068;28;20178;-77
2022/02/16 04:45:34;;;;;;;5.70;3.10;;;9.90;93.60;;;;;;4959707;28;20564;-76
2022/02/16 04:48:00;;;;;;;5.28;3.33;;;9.90;93.60;;;;;;4962877;28;20035;-76
2022/02/16 04:50:26;;;;;;;6.07;3.20;;;9.90;93.60;;;;;;4965048;28;20724;-77
2022/02/16 04:52:55;;;;;;;5.13;3.10;;;9.90;93.70;;;;;;4964984;28;20429;-77
2022/02/16 04:55:22;;;;;;;4.85;3.10;;;9.90;93.70;;;;;;4964316;28;21858;-77
2022/02/16 04:57:48;;;;;;;4.85;3.05;;;10.00;93.60;;;;;;4970009;28;20045;-77
2022/02/16 05:00:14;;;;;;;6.75;3.35;;;10.00;93.70;;;;;;4949166;28;20424;-77
2022/02/16 05:02:40;;;;;;;4.68;2.90;;;10.00;93.70;;;;;;4963408;28;20046;-77
2022/02/16 05:05:07;;;;;;;5.68;3.47;;;9.90;93.70;;;;;;4963561;28;20035;-77
2022/02/16 05:07:32;;;;;;;6.10;3.70;;;10.00;93.70;;;;;;4973980;28;20046;-78
2022/02/16 05:09:58;;;;;;;5.50;3.38;;;10.00;93.80;;;;;;4983221;28;20051;-78
2022/02/16 05:12:24;;;;;;;5.68;3.60;;;10.00;93.90;;;;;;4983954;28;20522;-77
2022/02/16 05:14:49;;;;;;;6.00;3.45;;;10.00;93.90;;;;;;4980166;28;20034;-77
2022/02/16 05:17:15;;;;;;;7.13;3.70;;;10.00;93.90;;;;;;4969008;28;20046;-76
2022/02/16 05:19:41;;;;;;;6.93;3.83;;;10.00;93.90;;;;;;4966170;28;20030;-76
2022/02/16 05:22:07;;;;;;;5.03;3.13;;;10.00;94.00;;;;;;4961941;28;20031;-76
2022/02/16 05:24:32;;;;;;;5.28;3.40;;;10.00;93.90;;;;;;4959534;28;20328;-76
2022/02/16 05:26:58;;;;;;;6.78;3.92;;;10.00;93.90;;;;;;4964557;28;20042;-77
2022/02/16 05:29:24;;;;;;;7.47;3.90;;;10.00;93.90;;;;;;4958715;28;20043;-78
2022/02/16 05:31:50;;;;;;;6.03;3.63;;;10.10;93.90;;;;;;4959091;28;20429;-77
2022/02/16 05:34:16;;;;;;;6.00;3.55;;;10.00;94.00;;;;;;4963326;28;20041;-76
2022/02/16 05:36:43;;;;;;;8.15;3.95;;;10.10;94.10;;;;;;4959580;28;20047;-77
2022/02/16 05:39:08;;;;;;;5.95;3.80;;;10.10;94.10;;;;;;4959760;28;20162;-77
2022/02/16 05:41:34;;;;;;;6.45;4.00;;;10.10;94.10;;;;;;4967336;28;20078;-77
2022/02/16 05:44:00;;;;;;;6.50;3.85;;;10.10;94.10;;;;;;4962276;28;20932;-76
2022/02/16 05:46:25;;;;;;;5.97;3.85;;;10.10;94.10;;;;;;4961741;28;20070;-77
2022/02/16 05:48:51;;;;;;;7.85;4.25;;;10.10;94.10;;;;;;4966672;28;20121;-76
2022/02/16 05:51:17;;;;;;;8.10;4.45;;;10.10;94.00;;;;;;4974433;28;20415;-75
2022/02/16 05:53:43;;;;;;;8.57;4.50;;;10.10;94.10;;;;;;4964688;28;20038;-76
2022/02/16 05:56:09;;;;;;;8.90;4.18;;;10.10;94.00;;;;;;4967715;28;20071;-78
2022/02/16 05:58:35;;;;;;;7.22;4.13;;;10.20;94.10;;;;;;4959258;28;21107;-76
2022/02/16 06:01:01;;;;;;;7.57;4.35;;;10.20;94.10;;;;;;4961054;28;20038;-76
2022/02/16 06:03:26;;;;;;;8.70;4.55;;;10.30;94.00;;;;;;4962234;28;20042;-76
2022/02/16 06:05:52;;;;;;;7.10;3.90;;;10.30;94.00;;;;;;4958675;28;20415;-76
2022/02/16 06:08:18;;;;;;;6.38;4.10;;;10.30;93.90;;;;;;4959015;28;20511;-76
2022/02/16 06:10:44;;;;;;;7.45;4.30;;;10.30;93.90;;;;;;4942751;28;20061;-76
2022/02/16 06:13:10;;;;;;;7.20;4.63;;;10.30;94.00;;;;;;4964200;28;20499;-77
2022/02/16 06:15:35;;;;;;;7.30;5.03;;;10.30;94.00;;;;;;4958780;28;20076;-76
2022/02/16 06:18:01;;;;;;;7.00;4.53;;;10.40;94.10;;;;;;4959975;28;20038;-76
2022/02/16 06:20:27;;;;;;;7.93;5.13;;;10.40;94.10;;;;;;4961820;28;20479;-76
2022/02/16 06:22:54;;;;;;;9.75;5.03;;;10.40;94.10;;;;;;4960484;28;20096;-76
2022/02/16 06:25:21;;;;;;;7.03;5.20;;;10.40;94.10;;;;;;4963172;28;20031;-76
2022/02/16 06:27:47;;;;;;;7.15;5.00;;;10.40;94.20;;;;;;4964419;28;20239;-76
2022/02/16 06:30:12;;;;;;;8.02;5.22;;;10.50;94.20;;;;;;4958608;28;20600;-76
2022/02/16 06:32:38;;;;;;;7.43;5.55;;;10.50;94.20;;;;;;4966460;28;20038;-76
2022/02/16 06:35:04;;;;;;;7.05;5.50;;;10.50;94.30;;;;;;4959875;28;20073;-76
2022/02/16 06:37:30;;;;;;;7.70;5.70;;;10.50;94.40;;;;;;4964314;28;20035;-76
2022/02/16 06:39:56;;;;;;;8.07;5.85;;;10.50;94.40;;;;;;4962660;28;20042;-76
2022/02/16 06:42:21;;;;;;;7.57;5.45;;;10.60;94.40;;;;;;4965452;28;20084;-77
2022/02/16 06:44:47;;;;;;;7.55;5.38;;;10.50;94.40;;;;;;4961347;28;20438;-76
2022/02/16 06:47:13;;;;;;;6.57;5.07;;;10.60;94.50;;;;;;4964581;28;20113;-77
2022/02/16 06:49:38;;;;;;;8.10;5.75;;;10.60;94.50;;;;;;4972667;28;20057;-76
2022/02/16 06:52:04;;;;;;;8.50;5.50;;;10.60;94.50;;;;;;4962191;28;20035;-76
2022/02/16 06:54:31;;;;;;;7.80;5.75;;;10.60;94.60;;;;;;4963706;28;20042;-75
2022/02/16 06:57:01;;;;;;;7.50;5.53;;;10.60;94.60;;;;;;4943885;28;20046;-72
2022/02/16 06:59:26;;;;;;;7.72;5.82;;;10.70;94.60;;;;;;4954651;28;20027;-75
2022/02/16 07:01:52;;;;;;;9.48;6.20;;;10.60;94.60;;;;;;4961780;28;20164;-73
2022/02/16 07:04:18;;;;;;;8.27;5.68;;;10.70;94.70;;;;;;4938609;28;20409;-72
2022/02/16 07:06:44;;;;;;;8.70;5.70;;;10.80;94.70;;;;;;4943339;28;20039;-74
2022/02/16 07:09:10;;;;;;;11.70;5.70;;;10.80;94.60;;;;;;4944814;28;20030;-78
2022/02/16 07:11:36;;;;;;;7.57;5.85;;;10.80;94.60;;;;;;4932246;28;20034;-73
2022/02/16 07:14:03;;;;;;;10.98;6.90;;;10.90;94.70;;;;;;4938396;28;20063;-76
2022/02/16 07:16:30;;;;;;;12.80;8.10;;;10.80;94.70;;;;;;4922878;28;20043;-72
2022/02/16 07:18:56;;;;;;;13.13;8.05;;;10.90;94.80;;;;;;4922036;28;20039;-76
2022/02/16 07:21:23;;;;;;;12.98;8.70;;;11.00;94.80;;;;;;4922929;28;20300;-73
2022/02/16 07:23:50;;;;;;;11.82;7.93;;;11.10;94.80;;;;;;4928691;28;20067;-73
2022/02/16 07:26:16;;;;;;;13.57;8.63;;;11.10;94.90;;;;;;4922476;28;20139;-77
2022/02/16 07:28:42;;;;;;;12.57;8.63;;;11.10;94.80;;;;;;4923160;28;20047;-78
2022/02/16 07:31:09;;;;;;;13.75;8.48;;;11.10;94.80;;;;;;4922845;28;20066;-76
2022/02/16 07:33:34;;;;;;;13.05;8.35;;;11.10;94.80;;;;;;4923885;28;20054;-79
2022/02/16 07:36:01;;;;;;;14.10;7.93;;;11.10;94.80;;;;;;4905975;29;20044;-74
2022/02/16 07:38:27;;;;;;;13.05;7.82;;;11.20;94.90;;;;;;4904837;29;20507;-73
2022/02/16 07:40:52;;;;;;;12.57;6.05;;;11.30;94.90;;;;;;4901166;29;20050;-78
2022/02/16 07:43:18;;;;;;;14.00;6.68;;;11.30;94.80;;;;;;4905647;28;20035;-76
2022/02/16 07:45:44;;;;;;;12.05;6.35;;;11.40;94.80;;;;;;4904319;29;20131;-75
2022/02/16 07:48:11;;;;;;;13.07;5.68;;;11.40;94.70;;;;;;4906241;29;20044;-74
2022/02/16 07:50:37;;;;;;;11.30;4.95;;;11.40;94.60;;;;;;4904833;28;20461;-77
2022/02/16 07:53:04;;;;;;;11.80;4.30;;;11.40;94.60;;;;;;4908008;28;20043;-74
2022/02/16 07:55:33;;;;;;;12.30;4.53;;;11.50;94.70;;;;;;4906039;28;20392;-75
2022/02/16 07:58:01;;;;;;;9.70;4.20;;;11.50;94.50;;;;;;4904407;28;20055;-73
2022/02/16 08:00:28;;;;;;;9.32;4.15;;;11.50;94.50;;;;;;4902405;29;20028;-75
2022/02/16 08:02:54;;;;;;;10.60;4.00;;;11.60;94.40;;;;;;4905518;28;20931;-73
2022/02/16 08:05:20;;;;;;;10.13;3.67;;;11.60;94.30;;;;;;4903211;29;20405;-75
2022/02/16 08:07:46;;;;;;;10.05;3.15;;;11.60;94.20;;;;;;4913686;28;20396;-72
2022/02/16 08:10:12;;;;;;;9.68;4.03;;;11.60;94.10;;;;;;4904697;29;20710;-77
2022/02/16 08:12:52;;;;;;;10.15;3.30;;;11.60;94.10;;;;;;4898902;29;20115;-73
2022/02/16 08:15:19;;;;;;;10.15;3.45;;;11.60;94.10;;;;;;4912021;28;20057;-77
2022/02/16 08:17:44;;;;;;;10.25;3.63;;;11.70;94.10;;;;;;4953982;28;20490;-77
2022/02/16 08:20:11;;;;;;;8.07;3.60;;;11.70;94.00;;;;;;4951274;28;20047;-75
2022/02/16 08:22:37;;;;;;;8.98;3.53;;;11.70;94.10;;;;;;4956500;28;20026;-72
2022/02/16 08:25:05;;;;;;;10.82;3.30;;;11.70;94.00;;;;;;4954519;28;20390;-72
2022/02/16 08:27:31;;;;;;;9.60;3.60;;;11.80;93.80;;;;;;4944044;28;20130;-78
2022/02/16 08:29:57;;;;;;;9.93;3.53;;;11.80;93.90;;;;;;4949197;28;20031;-80
2022/02/16 08:32:22;;;;;;;12.35;3.42;;;11.80;93.80;;;;;;4946848;28;20407;-77
2022/02/16 08:34:48;;;;;;;12.18;4.28;;;11.80;93.80;;;;;;4943112;28;20333;-77
2022/02/16 08:37:14;;;;;;;14.32;4.03;;;11.90;93.80;;;;;;4950542;28;20062;-78
2022/02/16 08:39:40;;;;;;;10.45;3.22;;;11.90;93.80;;;;;;4933599;28;20113;-79
2022/02/16 08:42:06;;;;;;;10.18;3.75;;;11.90;93.80;;;;;;4942986;28;20246;-74
2022/02/16 08:44:32;;;;;;;11.18;4.03;;;12.00;93.70;;;;;;4947881;28;20027;-76
2022/02/16 08:46:58;;;;;;;16.70;5.30;;;12.00;93.60;;;;;;4943293;28;20038;-78
2022/02/16 08:49:24;;;;;;;14.90;4.63;;;12.00;93.60;;;;;;4946405;28;20058;-72
2022/02/16 08:51:50;;;;;;;14.23;4.50;;;12.10;93.50;;;;;;4936975;28;20427;-75
2022/02/16 08:54:16;;;;;;;14.88;4.10;;;12.10;93.50;;;;;;4957237;28;20029;-75
2022/02/16 08:56:46;;;;;;;13.23;4.00;;;12.10;93.40;;;;;;4960691;28;20050;-74
2022/02/16 08:59:15;;;;;;;16.70;4.13;;;12.10;93.40;;;;;;4956515;28;20089;-78
2022/02/16 09:01:41;;;;;;;12.13;3.45;;;12.10;93.40;;;;;;4963776;28;20038;-78
2022/02/16 09:04:07;;;;;;;16.38;3.92;;;12.10;93.30;;;;;;4940483;28;20461;-72
2022/02/16 09:06:34;;;;;;;18.25;4.93;;;12.10;93.30;;;;;;4960686;28;20046;-74
2022/02/16 09:09:01;;;;;;;16.50;4.70;;;12.10;93.30;;;;;;4957954;28;20035;-74
2022/02/16 09:11:29;;;;;;;15.38;4.43;;;12.20;93.20;;;;;;4946682;28;20070;-72
2022/02/16 09:13:55;;;;;;;21.50;4.45;;;12.10;93.10;;;;;;4944290;28;20292;-78
2022/02/16 09:16:22;;;;;;;21.38;4.72;;;12.20;93.10;;;;;;4961668;28;20529;-70
2022/02/16 09:18:48;;;;;;;19.30;4.63;;;12.30;92.90;;;;;;4961249;28;20042;-77
2022/02/16 09:21:16;;;;;;;20.05;5.07;;;12.30;92.60;;;;;;4944586;28;20058;-75
2022/02/16 09:23:41;;;;;;;20.95;5.70;;;12.30;92.60;;;;;;4959951;28;20662;-71
2022/02/16 09:26:07;;;;;;;26.23;5.22;;;12.40;92.60;;;;;;4959141;28;20149;-72
2022/02/16 09:28:35;;;;;;;22.15;5.75;;;12.40;92.40;;;;;;4962807;28;20170;-77
2022/02/16 09:31:02;;;;;;;20.92;5.30;;;12.30;92.50;;;;;;4961052;28;20053;-77
2022/02/16 09:33:28;;;;;;;20.77;6.10;;;12.30;92.40;;;;;;4967101;28;20947;-72
2022/02/16 09:35:55;;;;;;;18.00;5.65;;;12.40;92.20;;;;;;4967678;28;20307;-73
2022/02/16 09:38:22;;;;;;;24.40;6.05;;;12.40;92.10;;;;;;4966736;28;20122;-72
2022/02/16 09:40:50;;;;;;;22.17;5.00;;;12.40;91.90;;;;;;4974441;28;20478;-75
2022/02/16 09:43:21;;;;;;;27.00;6.97;;;12.40;91.90;;;;;;4968967;28;20046;-78
2022/02/16 09:45:47;;;;;;;20.10;5.80;;;12.50;91.90;;;;;;4949615;28;20038;-76
2022/02/16 09:48:13;;;;;;;18.58;5.38;;;12.50;91.70;;;;;;4966198;28;20042;-73
2022/02/16 09:50:39;;;;;;;17.73;5.00;;;12.60;91.50;;;;;;4979080;28;20054;-73
2022/02/16 09:53:05;;;;;;;18.98;4.80;;;12.60;91.30;;;;;;4966231;28;20117;-74
2022/02/16 09:55:31;;;;;;;21.55;5.50;;;12.70;91.10;;;;;;4964437;28;20058;-74
2022/02/16 09:57:57;;;;;;;17.48;5.45;;;12.80;90.60;;;;;;4964248;28;20531;-76
2022/02/16 10:00:23;;;;;;;18.42;4.75;;;12.80;90.40;;;;;;4967227;28;20045;-75
2022/02/16 10:02:48;;;;;;;24.85;4.82;;;12.80;90.30;;;;;;4948966;28;20407;-73
2022/02/16 10:05:16;;;;;;;23.23;5.15;;;12.80;90.20;;;;;;4963351;28;20735;-76
2022/02/16 10:07:47;;;;;;;16.98;5.13;;;12.80;90.00;;;;;;4967657;28;20659;-73
2022/02/16 10:10:26;;;;;;;18.13;4.88;;;12.80;89.90;;;;;;4947619;28;20027;-77
2022/02/16 10:12:55;;;;;;;18.10;5.20;;;12.80;89.90;;;;;;4969226;28;20030;-74
2022/02/16 10:15:22;;;;;;;17.50;5.07;;;12.80;90.00;;;;;;4963746;28;20046;-72
2022/02/16 10:18:03;;;;;;;19.92;5.03;;;12.70;90.00;;;;;;4962176;28;20043;-72
2022/02/16 10:20:29;;;;;;;20.42;5.45;;;12.70;89.80;;;;;;4965488;28;20062;-77
2022/02/16 10:22:56;;;;;;;20.13;5.15;;;12.70;89.80;;;;;;4962299;28;20035;-72
2022/02/16 10:25:27;;;;;;;21.20;5.15;;;12.70;89.60;;;;;;4962943;28;20542;-74
2022/02/16 10:28:12;;;;;;;20.40;5.70;;;12.70;89.80;;;;;;4972613;28;20071;-77
2022/02/16 10:30:57;;;;;;;24.27;5.35;;;12.60;89.70;;;;;;4965232;28;20363;-74
2022/02/16 10:33:33;;;;;;;27.63;5.72;;;12.70;89.20;;;;;;4962673;28;20042;-75
2022/02/16 10:36:02;;;;;;;25.38;6.38;;;12.70;89.20;;;;;;4965053;28;20151;-72
2022/02/16 10:38:29;;;;;;;23.35;5.85;;;12.70;89.20;;;;;;4972350;28;20048;-81
2022/02/16 10:41:06;;;;;;;27.63;6.53;;;12.70;89.00;;;;;;4962901;28;20039;-75
2022/02/16 10:43:38;;;;;;;27.05;5.97;;;12.70;89.10;;;;;;4962230;28;20041;-76
2022/02/16 10:46:27;;;;;;;25.52;5.63;;;12.70;89.00;;;;;;4962453;28;20089;-75
2022/02/16 10:49:11;;;;;;;28.88;6.80;;;12.60;89.10;;;;;;4962579;28;20537;-72
2022/02/16 10:51:38;;;;;;;30.67;6.40;;;12.70;88.90;;;;;;4945281;28;20772;-73
2022/02/16 10:54:17;;;;;;;32.47;7.18;;;12.70;88.60;;;;;;4964304;28;20035;-74
2022/02/16 10:56:44;;;;;;;33.15;7.18;;;12.70;88.70;;;;;;4964450;28;20062;-75
2022/02/16 10:59:10;;;;;;;33.20;8.20;;;12.80;88.60;;;;;;4961341;28;20496;-76
2022/02/16 11:01:38;;;;;;;30.38;7.55;;;12.80;88.20;;;;;;4966764;28;20526;-76
2022/02/16 11:04:06;;;;;;;30.60;7.00;;;12.90;87.80;;;;;;4966486;28;20456;-75
2022/02/16 11:06:41;;;;;;;37.30;8.23;;;13.00;87.90;;;;;;4963866;28;20745;-75
2022/02/16 11:09:20;;;;;;;34.33;7.95;;;13.00;87.90;;;;;;4946268;28;20480;-76
2022/02/16 11:11:51;;;;;;;25.83;6.43;;;13.00;87.70;;;;;;4962698;28;20050;-78
2022/02/16 11:14:21;;;;;;;37.88;7.93;;;13.00;87.50;;;;;;4962196;28;20027;-75
2022/02/16 11:16:48;;;;;;;36.22;9.23;;;13.10;87.50;;;;;;4966701;28;20068;-76
2022/02/16 11:19:35;;;;;;;28.10;7.57;;;13.20;87.00;;;;;;4973049;28;20037;-73
2022/02/16 11:22:09;;;;;;;35.78;8.25;;;13.20;86.90;;;;;;4960205;28;20034;-73
2022/02/16 11:24:41;;;;;;;32.35;9.95;;;13.30;86.40;;;;;;4961755;28;20136;-74
2022/02/16 11:27:33;;;;;;;32.35;6.97;;;13.30;85.90;;;;;;4964290;28;20035;-76
2022/02/16 11:30:06;;;;;;;30.48;7.07;;;13.30;86.30;;;;;;4962755;28;20105;-79
2022/02/16 11:32:33;;;;;;;28.23;7.38;;;13.40;86.00;;;;;;4962516;28;20244;-73
2022/02/16 11:35:17;;;;;;;24.60;7.57;;;13.50;85.60;;;;;;4945044;28;20434;-80
2022/02/16 11:37:49;;;;;;;29.80;7.63;;;13.50;85.20;;;;;;4962188;28;20133;-81
2022/02/16 11:40:16;;;;;;;27.60;7.32;;;13.60;84.90;;;;;;4971485;28;20313;-75
2022/02/16 11:42:48;;;;;;;25.33;7.07;;;13.60;85.00;;;;;;4945766;28;20165;-75
2022/02/16 11:45:15;;;;;;;27.98;6.78;;;13.70;85.00;;;;;;4964606;28;20070;-74
2022/02/16 11:47:41;;;;;;;27.77;6.78;;;13.80;84.30;;;;;;4961483;28;20038;-81
2022/02/16 11:50:16;;;;;;;27.02;7.10;;;13.80;84.10;;;;;;4970168;28;20097;-76
2022/02/16 11:52:41;;;;;;;;;;;13.80;83.60;;;;;;4964406;28;20031;-73
2022/02/16 11:55:20;;;;;;;25.20;6.22;;;13.80;83.70;;;;;;4961998;28;20132;-74
2022/02/16 11:57:46;;;;;;;25.65;6.63;;;13.70;83.70;;;;;;4962974;28;20046;-75
2022/02/16 12:00:15;;;;;;;27.30;6.38;;;13.60;83.50;;;;;;4964135;28;20466;-73
2022/02/16 12:03:16;;;;;;;31.88;6.65;;;13.60;83.90;;;;;;4961246;28;20149;-76
2022/02/16 12:06:07;;;;;;;27.88;6.43;;;13.70;83.60;;;;;;4917177;28;20074;-77
2022/02/16 12:08:42;;;;;;;23.83;5.70;;;13.80;83.70;;;;;;4958409;28;20034;-73
2022/02/16 12:11:22;;;;;;;33.17;7.82;;;13.80;83.10;;;;;;4961273;28;20058;-75
2022/02/16 12:14:11;;;;;;;30.52;6.55;;;13.80;82.80;;;;;;4960017;28;20042;-76
2022/02/16 12:16:53;;;;;;;30.30;7.63;;;13.60;83.00;;;;;;4948474;28;20064;-75
2022/02/16 12:19:20;;;;;;;31.40;7.00;;;13.70;82.90;;;;;;4956417;28;20031;-77
2022/02/16 12:21:52;;;;;;;32.78;7.00;;;13.60;83.00;;;;;;4947019;28;20434;-75
2022/02/16 12:24:22;;;;;;;29.15;7.00;;;13.60;83.10;;;;;;4942131;28;20041;-80
2022/02/16 12:26:55;;;;;;;32.55;8.45;;;13.80;82.50;;;;;;4961374;28;20068;-73
2022/02/16 12:29:28;;;;;;;34.38;9.07;;;13.90;82.00;;;;;;4960552;28;21019;-76
2022/02/16 12:31:57;;;;;;;28.48;7.05;;;13.90;81.70;;;;;;4957623;28;20031;-75
2022/02/16 12:34:29;;;;;;;33.30;8.25;;;14.10;81.60;;;;;;4955705;28;20039;-78
2022/02/16 12:37:08;;;;;;;31.33;7.05;;;14.10;81.20;;;;;;4957963;28;20046;-76
2022/02/16 12:39:35;;;;;;;32.67;7.75;;;14.10;81.10;;;;;;4959468;28;20066;-74
2022/02/16 12:42:09;;;;;;;30.00;9.15;;;14.10;81.00;;;;;;4957198;28;20037;-77
2022/02/16 12:44:36;;;;;;;38.53;8.70;;;14.10;81.00;;;;;;4955570;28;20041;-75
2022/02/16 12:47:03;;;;;;;32.28;6.68;;;14.20;80.90;;;;;;4953760;28;20945;-73
2022/02/16 12:49:30;;;;;;;27.52;7.25;;;14.20;79.90;;;;;;4956056;28;20573;-77
2022/02/16 12:51:57;;;;;;;33.08;7.85;;;14.30;80.20;;;;;;4939409;28;20041;-76